sensor_id;sensor_type;location;lat;lon;timestamp;pressure;altitude;pressure_sealevel;temperature;humidity
12626;BME280;6378;42.684;23.372;2023-04-26T00:02:10;94201.28;;;10.25;100.00
12626;BME280;6378;42.684;23.372;2023-04-26T00:04:37;94197.03;;;10.24;100.00
12626;BME280;6378;42.684;23.372;2023-04-26T00:07:03;94197.75;;;10.21;100.00
12626;BME280;6378;42.684;23.372;2023-04-26T00:09:29;94182.22;;;10.11;100.00
12626;BME280;6378;42.684;23.372;2023-04-26T00:11:54;94189.31;;;10.22;100.00
12626;BME280;6378;42.684;23.372;2023-04-26T00:14:20;94191.78;;;10.08;100.00
12626;BME280;6378;42.684;23.372;2023-04-26T00:16:45;94133.19;;;9.68;100.00
12626;BME280;6378;42.684;23.372;2023-04-26T00:19:11;94167.84;;;9.99;100.00
12626;BME280;6378;42.684;23.372;2023-04-26T00:21:37;94156.66;;;9.97;100.00
12626;BME280;6378;42.684;23.372;2023-04-26T00:24:03;94175.91;;;9.99;100.00
12626;BME280;6378;42.684;23.372;2023-04-26T00:26:29;94166.19;;;9.91;100.00
12626;BME280;6378;42.684;23.372;2023-04-26T00:28:55;94169.59;;;9.88;100.00
12626;BME280;6378;42.684;23.372;2023-04-26T00:31:20;94170.31;;;9.85;100.00
12626;BME280;6378;42.684;23.372;2023-04-26T00:33:46;94168.00;;;9.84;100.00
12626;BME280;6378;42.684;23.372;2023-04-26T00:36:12;94168.78;;;9.84;100.00
12626;BME280;6378;42.684;23.372;2023-04-26T00:38:37;94159.53;;;9.82;100.00
12626;BME280;6378;42.684;23.372;2023-04-26T00:41:03;94163.03;;;9.86;100.00
12626;BME280;6378;42.684;23.372;2023-04-26T00:43:28;94126.91;;;9.57;100.00
12626;BME280;6378;42.684;23.372;2023-04-26T00:45:54;94156.84;;;9.82;100.00
12626;BME280;6378;42.684;23.372;2023-04-26T00:48:20;94156.38;;;9.76;100.00
12626;BME280;6378;42.684;23.372;2023-04-26T00:50:46;94159.41;;;9.75;100.00
12626;BME280;6378;42.684;23.372;2023-04-26T00:53:13;94157.50;;;9.75;100.00
12626;BME280;6378;42.684;23.372;2023-04-26T00:55:40;94160.84;;;9.69;100.00
12626;BME280;6378;42.684;23.372;2023-04-26T00:58:06;94168.97;;;9.72;100.00
12626;BME280;6378;42.684;23.372;2023-04-26T01:00:31;94147.78;;;9.67;100.00
12626;BME280;6378;42.684;23.372;2023-04-26T01:02:57;94168.56;;;9.70;100.00
12626;BME280;6378;42.684;23.372;2023-04-26T01:05:22;94104.19;;;9.28;100.00
12626;BME280;6378;42.684;23.372;2023-04-26T01:07:48;94164.31;;;9.69;100.00
12626;BME280;6378;42.684;23.372;2023-04-26T01:10:13;94168.56;;;9.70;100.00
12626;BME280;6378;42.684;23.372;2023-04-26T01:12:39;94164.00;;;9.74;100.00
12626;BME280;6378;42.684;23.372;2023-04-26T01:15:05;94158.88;;;9.66;100.00
12626;BME280;6378;42.684;23.372;2023-04-26T01:17:31;94168.50;;;9.67;100.00
12626;BME280;6378;42.684;23.372;2023-04-26T01:19:56;94138.25;;;9.47;100.00
12626;BME280;6378;42.684;23.372;2023-04-26T01:22:22;94168.06;;;9.65;100.00
12626;BME280;6378;42.684;23.372;2023-04-26T01:24:49;94166.16;;;9.65;100.00
12626;BME280;6378;42.684;23.372;2023-04-26T01:27:16;94160.00;;;9.65;100.00
12626;BME280;6378;42.684;23.372;2023-04-26T01:29:41;94142.84;;;9.73;100.00
12626;BME280;6378;42.684;23.372;2023-04-26T01:32:07;94142.84;;;9.73;100.00
12626;BME280;6378;42.684;23.372;2023-04-26T01:34:33;94144.38;;;9.70;100.00
12626;BME280;6378;42.684;23.372;2023-04-26T01:36:59;94140.91;;;9.70;100.00
12626;BME280;6378;42.684;23.372;2023-04-26T01:39:25;94148.91;;;9.66;100.00
12626;BME280;6378;42.684;23.372;2023-04-26T01:41:50;94153.50;;;9.66;100.00
12626;BME280;6378;42.684;23.372;2023-04-26T01:44:16;94140.69;;;9.55;100.00
12626;BME280;6378;42.684;23.372;2023-04-26T01:46:41;94154.59;;;9.61;100.00
12626;BME280;6378;42.684;23.372;2023-04-26T01:49:07;94161.03;;;9.56;100.00
12626;BME280;6378;42.684;23.372;2023-04-26T01:51:32;94174.19;;;9.62;100.00
12626;BME280;6378;42.684;23.372;2023-04-26T01:53:58;94152.09;;;9.49;100.00
12626;BME280;6378;42.684;23.372;2023-04-26T01:56:24;94164.56;;;9.61;100.00
12626;BME280;6378;42.684;23.372;2023-04-26T01:58:49;94158.41;;;9.60;100.00
12626;BME280;6378;42.684;23.372;2023-04-26T02:01:15;94164.13;;;9.58;100.00
12626;BME280;6378;42.684;23.372;2023-04-26T02:03:40;94156.75;;;9.52;100.00
12626;BME280;6378;42.684;23.372;2023-04-26T02:06:06;94164.03;;;9.51;100.00
12626;BME280;6378;42.684;23.372;2023-04-26T02:08:31;94152.50;;;9.51;100.00
12626;BME280;6378;42.684;23.372;2023-04-26T02:10:57;94147.91;;;9.51;100.00
12626;BME280;6378;42.684;23.372;2023-04-26T02:13:22;94151.69;;;9.47;100.00
12626;BME280;6378;42.684;23.372;2023-04-26T02:15:48;94153.13;;;9.41;100.00
12626;BME280;6378;42.684;23.372;2023-04-26T02:18:14;94151.81;;;9.31;100.00
12626;BME280;6378;42.684;23.372;2023-04-26T02:20:41;94137.84;;;9.22;100.00
12626;BME280;6378;42.684;23.372;2023-04-26T02:23:10;94140.94;;;9.24;100.00
12626;BME280;6378;42.684;23.372;2023-04-26T02:25:36;94131.69;;;9.22;100.00
12626;BME280;6378;42.684;23.372;2023-04-26T02:28:02;94129.06;;;9.02;100.00
12626;BME280;6378;42.684;23.372;2023-04-26T02:30:28;94149.13;;;9.08;100.00
12626;BME280;6378;42.684;23.372;2023-04-26T02:32:54;94154.78;;;9.03;100.00
12626;BME280;6378;42.684;23.372;2023-04-26T02:35:20;94147.50;;;9.04;100.00
12626;BME280;6378;42.684;23.372;2023-04-26T02:37:45;94154.41;;;9.05;100.00
12626;BME280;6378;42.684;23.372;2023-04-26T02:40:14;94143.59;;;9.01;100.00
12626;BME280;6378;42.684;23.372;2023-04-26T02:42:40;94161.53;;;9.17;100.00
12626;BME280;6378;42.684;23.372;2023-04-26T02:45:06;94163.72;;;9.11;100.00
12626;BME280;6378;42.684;23.372;2023-04-26T02:47:32;94125.28;;;8.84;100.00
12626;BME280;6378;42.684;23.372;2023-04-26T02:49:58;94152.22;;;9.10;100.00
12626;BME280;6378;42.684;23.372;2023-04-26T02:52:23;94146.97;;;9.18;100.00
12626;BME280;6378;42.684;23.372;2023-04-26T02:54:49;94149.22;;;9.16;100.00
12626;BME280;6378;42.684;23.372;2023-04-26T02:57:14;94055.22;;;8.66;100.00
12626;BME280;6378;42.684;23.372;2023-04-26T02:59:40;94129.25;;;9.13;100.00
12626;BME280;6378;42.684;23.372;2023-04-26T03:02:05;94117.13;;;9.00;100.00
12626;BME280;6378;42.684;23.372;2023-04-26T03:04:32;94100.44;;;8.87;100.00
12626;BME280;6378;42.684;23.372;2023-04-26T03:06:58;94130.34;;;9.08;100.00
12626;BME280;6378;42.684;23.372;2023-04-26T03:09:23;94143.66;;;9.05;100.00
12626;BME280;6378;42.684;23.372;2023-04-26T03:11:49;94147.22;;;9.32;100.00
12626;BME280;6378;42.684;23.372;2023-04-26T03:14:14;94143.63;;;9.24;100.00
12626;BME280;6378;42.684;23.372;2023-04-26T03:16:41;94139.44;;;9.27;100.00
12626;BME280;6378;42.684;23.372;2023-04-26T03:19:07;94143.41;;;9.33;100.00
12626;BME280;6378;42.684;23.372;2023-04-26T03:21:32;94127.88;;;9.23;100.00
12626;BME280;6378;42.684;23.372;2023-04-26T03:23:58;94130.28;;;9.28;100.00
12626;BME280;6378;42.684;23.372;2023-04-26T03:26:23;94128.72;;;9.27;100.00
12626;BME280;6378;42.684;23.372;2023-04-26T03:28:48;94106.69;;;9.18;100.00
12626;BME280;6378;42.684;23.372;2023-04-26T03:31:14;94123.28;;;9.23;100.00
12626;BME280;6378;42.684;23.372;2023-04-26T03:33:42;94129.50;;;9.27;100.00
12626;BME280;6378;42.684;23.372;2023-04-26T03:36:07;94136.81;;;9.30;100.00
12626;BME280;6378;42.684;23.372;2023-04-26T03:38:33;94134.19;;;9.34;100.00
12626;BME280;6378;42.684;23.372;2023-04-26T03:40:58;94134.25;;;9.37;100.00
12626;BME280;6378;42.684;23.372;2023-04-26T03:43:24;94134.06;;;9.72;100.00
12626;BME280;6378;42.684;23.372;2023-04-26T03:45:50;94107.94;;;9.73;100.00
12626;BME280;6378;42.684;23.372;2023-04-26T03:48:15;94134.72;;;10.18;100.00
12626;BME280;6378;42.684;23.372;2023-04-26T03:50:41;94138.72;;;10.61;100.00
12626;BME280;6378;42.684;23.372;2023-04-26T03:53:09;94134.31;;;11.16;100.00
12626;BME280;6378;42.684;23.372;2023-04-26T03:55:35;94147.56;;;11.80;100.00
12626;BME280;6378;42.684;23.372;2023-04-26T03:58:01;94122.06;;;12.21;100.00
12626;BME280;6378;42.684;23.372;2023-04-26T04:00:27;94128.09;;;12.80;100.00
12626;BME280;6378;42.684;23.372;2023-04-26T04:02:53;94123.63;;;13.33;100.00
12626;BME280;6378;42.684;23.372;2023-04-26T04:05:18;94106.25;;;13.77;100.00
12626;BME280;6378;42.684;23.372;2023-04-26T04:07:44;94103.81;;;14.32;100.00
12626;BME280;6378;42.684;23.372;2023-04-26T04:10:09;94109.16;;;14.57;100.00
12626;BME280;6378;42.684;23.372;2023-04-26T04:12:35;94105.19;;;14.86;100.00
12626;BME280;6378;42.684;23.372;2023-04-26T04:15:01;94108.16;;;15.13;100.00
12626;BME280;6378;42.684;23.372;2023-04-26T04:17:27;94118.19;;;15.16;100.00
12626;BME280;6378;42.684;23.372;2023-04-26T04:19:52;94118.91;;;15.27;100.00
12626;BME280;6378;42.684;23.372;2023-04-26T04:22:18;94089.69;;;14.87;100.00
12626;BME280;6378;42.684;23.372;2023-04-26T04:24:43;94113.00;;;14.66;100.00
12626;BME280;6378;42.684;23.372;2023-04-26T04:27:09;94120.06;;;14.25;100.00
12626;BME280;6378;42.684;23.372;2023-04-26T04:29:34;94114.75;;;13.82;100.00
12626;BME280;6378;42.684;23.372;2023-04-26T04:32:00;94119.00;;;13.73;100.00
12626;BME280;6378;42.684;23.372;2023-04-26T04:34:26;94112.78;;;13.40;100.00
12626;BME280;6378;42.684;23.372;2023-04-26T04:36:51;94108.16;;;13.23;100.00
12626;BME280;6378;42.684;23.372;2023-04-26T04:39:17;94139.41;;;13.17;100.00
12626;BME280;6378;42.684;23.372;2023-04-26T04:41:42;94134.31;;;13.05;100.00
12626;BME280;6378;42.684;23.372;2023-04-26T04:44:13;94126.97;;;13.02;100.00
12626;BME280;6378;42.684;23.372;2023-04-26T04:46:40;66429.44;;;-144.46;100.00
12626;BME280;6378;42.684;23.372;2023-04-26T04:49:05;66429.44;;;-144.46;100.00
12626;BME280;6378;42.684;23.372;2023-04-26T04:51:34;94127.47;;;13.36;100.00
12626;BME280;6378;42.684;23.372;2023-04-26T04:54:11;94132.44;;;13.16;100.00
12626;BME280;6378;42.684;23.372;2023-04-26T04:56:37;94133.63;;;13.22;100.00
12626;BME280;6378;42.684;23.372;2023-04-26T04:59:02;94133.63;;;13.22;100.00
12626;BME280;6378;42.684;23.372;2023-04-26T05:01:30;94133.63;;;13.22;100.00
12626;BME280;6378;42.684;23.372;2023-04-26T05:03:56;94132.50;;;13.52;100.00
12626;BME280;6378;42.684;23.372;2023-04-26T05:06:22;94136.78;;;13.63;100.00
12626;BME280;6378;42.684;23.372;2023-04-26T05:08:47;94141.38;;;13.70;100.00
12626;BME280;6378;42.684;23.372;2023-04-26T05:11:12;94125.16;;;13.59;100.00
12626;BME280;6378;42.684;23.372;2023-04-26T05:13:38;94136.75;;;13.70;100.00
12626;BME280;6378;42.684;23.372;2023-04-26T05:16:03;94138.69;;;14.02;100.00
12626;BME280;6378;42.684;23.372;2023-04-26T05:18:29;94134.03;;;14.16;100.00
12626;BME280;6378;42.684;23.372;2023-04-26T05:20:54;94128.22;;;14.04;100.00
12626;BME280;6378;42.684;23.372;2023-04-26T05:23:21;94132.88;;;14.03;100.00
12626;BME280;6378;42.684;23.372;2023-04-26T05:25:46;94137.09;;;14.08;100.00
12626;BME280;6378;42.684;23.372;2023-04-26T05:28:12;94145.22;;;14.25;100.00
12626;BME280;6378;42.684;23.372;2023-04-26T05:30:38;94144.06;;;14.19;100.00
12626;BME280;6378;42.684;23.372;2023-04-26T05:33:04;94149.50;;;14.05;100.00
12626;BME280;6378;42.684;23.372;2023-04-26T05:35:29;94150.66;;;13.76;100.00
12626;BME280;6378;42.684;23.372;2023-04-26T05:37:55;94147.56;;;13.67;100.00
12626;BME280;6378;42.684;23.372;2023-04-26T05:40:20;94149.91;;;13.72;100.00
12626;BME280;6378;42.684;23.372;2023-04-26T05:42:45;94148.72;;;13.66;100.00
12626;BME280;6378;42.684;23.372;2023-04-26T05:45:11;94146.81;;;13.63;100.00
12626;BME280;6378;42.684;23.372;2023-04-26T05:47:36;94151.06;;;13.92;100.00
12626;BME280;6378;42.684;23.372;2023-04-26T05:50:02;94152.56;;;14.21;100.00
12626;BME280;6378;42.684;23.372;2023-04-26T05:52:28;94150.97;;;14.49;100.00
12626;BME280;6378;42.684;23.372;2023-04-26T05:54:53;94150.56;;;14.64;100.00
12626;BME280;6378;42.684;23.372;2023-04-26T05:57:18;94154.00;;;14.72;100.00
12626;BME280;6378;42.684;23.372;2023-04-26T05:59:44;94151.72;;;14.56;100.00
12626;BME280;6378;42.684;23.372;2023-04-26T06:02:10;94157.97;;;14.21;100.00
12626;BME280;6378;42.684;23.372;2023-04-26T06:04:36;94155.69;;;14.02;100.00
12626;BME280;6378;42.684;23.372;2023-04-26T06:07:01;94154.13;;;13.80;100.00
12626;BME280;6378;42.684;23.372;2023-04-26T06:09:26;94157.59;;;13.84;100.00
12626;BME280;6378;42.684;23.372;2023-04-26T06:11:52;94161.06;;;13.60;100.00
12626;BME280;6378;42.684;23.372;2023-04-26T06:14:17;94161.78;;;13.14;100.00
12626;BME280;6378;42.684;23.372;2023-04-26T06:16:43;94164.03;;;13.01;100.00
12626;BME280;6378;42.684;23.372;2023-04-26T06:19:08;94171.75;;;13.03;100.00
12626;BME280;6378;42.684;23.372;2023-04-26T06:21:34;94148.56;;;12.91;100.00
12626;BME280;6378;42.684;23.372;2023-04-26T06:23:59;94157.47;;;13.06;100.00
12626;BME280;6378;42.684;23.372;2023-04-26T06:26:25;94159.81;;;13.08;100.00
12626;BME280;6378;42.684;23.372;2023-04-26T06:28:50;94158.31;;;13.17;100.00
12626;BME280;6378;42.684;23.372;2023-04-26T06:31:16;94156.44;;;13.50;100.00
12626;BME280;6378;42.684;23.372;2023-04-26T06:33:41;94150.66;;;13.69;100.00
12626;BME280;6378;42.684;23.372;2023-04-26T06:36:10;94136.72;;;13.99;100.00
12626;BME280;6378;42.684;23.372;2023-04-26T06:38:37;94153.16;;;14.86;100.00
12626;BME280;6378;42.684;23.372;2023-04-26T06:41:02;94137.69;;;15.63;100.00
12626;BME280;6378;42.684;23.372;2023-04-26T06:43:28;94164.72;;;16.21;100.00
12626;BME280;6378;42.684;23.372;2023-04-26T06:45:53;94145.09;;;16.44;100.00
12626;BME280;6378;42.684;23.372;2023-04-26T06:48:18;94127.09;;;16.95;100.00
12626;BME280;6378;42.684;23.372;2023-04-26T06:50:44;94143.22;;;17.09;88.08
12626;BME280;6378;42.684;23.372;2023-04-26T06:53:10;94115.06;;;16.96;80.23
12626;BME280;6378;42.684;23.372;2023-04-26T06:55:35;94146.47;;;16.66;81.52
12626;BME280;6378;42.684;23.372;2023-04-26T06:58:01;94153.53;;;16.16;87.38
12626;BME280;6378;42.684;23.372;2023-04-26T07:00:27;94143.22;;;15.96;91.98
12626;BME280;6378;42.684;23.372;2023-04-26T07:02:52;94147.81;;;15.51;83.84
12626;BME280;6378;42.684;23.372;2023-04-26T07:05:18;94156.53;;;15.18;87.54
12626;BME280;6378;42.684;23.372;2023-04-26T07:07:44;94153.69;;;15.39;89.14
12626;BME280;6378;42.684;23.372;2023-04-26T07:10:10;94149.22;;;15.70;84.44
12626;BME280;6378;42.684;23.372;2023-04-26T07:12:35;94134.94;;;15.66;83.87
12626;BME280;6378;42.684;23.372;2023-04-26T07:15:02;94158.78;;;15.92;80.85
12626;BME280;6378;42.684;23.372;2023-04-26T07:17:27;94159.50;;;15.96;82.53
12626;BME280;6378;42.684;23.372;2023-04-26T07:22:39;94166.41;;;15.46;80.15
12626;BME280;6378;42.684;23.372;2023-04-26T07:25:05;94154.59;;;15.18;85.92
12626;BME280;6378;42.684;23.372;2023-04-26T07:27:30;94169.34;;;15.07;85.07
12626;BME280;6378;42.684;23.372;2023-04-26T07:29:56;94167.06;;;14.98;84.99
12626;BME280;6378;42.684;23.372;2023-04-26T07:32:21;94163.56;;;15.05;84.40
12626;BME280;6378;42.684;23.372;2023-04-26T07:34:47;94079.53;;;15.08;86.47
12626;BME280;6378;42.684;23.372;2023-04-26T07:37:12;94169.19;;;15.39;78.56
12626;BME280;6378;42.684;23.372;2023-04-26T07:39:38;94165.19;;;15.61;79.82
12626;BME280;6378;42.684;23.372;2023-04-26T07:42:03;94172.53;;;15.64;82.92
12626;BME280;6378;42.684;23.372;2023-04-26T07:44:29;94176.59;;;15.90;77.35
12626;BME280;6378;42.684;23.372;2023-04-26T07:46:54;94171.50;;;15.99;76.79
12626;BME280;6378;42.684;23.372;2023-04-26T07:49:20;94162.13;;;15.55;72.60
12626;BME280;6378;42.684;23.372;2023-04-26T07:51:45;94158.44;;;15.25;79.20
12626;BME280;6378;42.684;23.372;2023-04-26T07:54:11;94177.75;;;15.34;78.26
12626;BME280;6378;42.684;23.372;2023-04-26T07:56:36;94179.19;;;15.56;76.07
12626;BME280;6378;42.684;23.372;2023-04-26T07:59:02;94166.50;;;15.32;74.59
12626;BME280;6378;42.684;23.372;2023-04-26T08:01:29;94164.09;;;15.48;74.11
12626;BME280;6378;42.684;23.372;2023-04-26T08:03:54;94163.63;;;15.64;69.92
12626;BME280;6378;42.684;23.372;2023-04-26T08:06:20;94180.63;;;15.71;69.80
12626;BME280;6378;42.684;23.372;2023-04-26T08:08:46;94183.97;;;15.27;70.27
12626;BME280;6378;42.684;23.372;2023-04-26T08:11:15;94167.75;;;15.16;74.13
12626;BME280;6378;42.684;23.372;2023-04-26T08:13:40;94178.19;;;15.18;74.42
12626;BME280;6378;42.684;23.372;2023-04-26T08:16:08;94154.09;;;15.38;73.14
12626;BME280;6378;42.684;23.372;2023-04-26T08:18:34;94182.00;;;15.93;71.18
12626;BME280;6378;42.684;23.372;2023-04-26T08:20:59;94170.72;;;15.98;69.24
12626;BME280;6378;42.684;23.372;2023-04-26T08:23:25;94178.56;;;16.34;68.56
12626;BME280;6378;42.684;23.372;2023-04-26T08:25:50;94183.50;;;16.46;66.45
12626;BME280;6378;42.684;23.372;2023-04-26T08:28:16;94183.22;;;16.33;67.65
12626;BME280;6378;42.684;23.372;2023-04-26T08:30:42;94177.09;;;16.26;67.25
12626;BME280;6378;42.684;23.372;2023-04-26T08:33:10;94174.72;;;16.31;66.84
12626;BME280;6378;42.684;23.372;2023-04-26T08:35:36;94153.69;;;15.94;70.42
12626;BME280;6378;42.684;23.372;2023-04-26T08:38:01;94173.97;;;16.27;67.67
12626;BME280;6378;42.684;23.372;2023-04-26T08:40:27;94172.25;;;16.44;68.50
12626;BME280;6378;42.684;23.372;2023-04-26T08:42:52;94167.25;;;15.39;66.15
12626;BME280;6378;42.684;23.372;2023-04-26T08:45:19;94171.28;;;15.76;71.53
12626;BME280;6378;42.684;23.372;2023-04-26T08:47:49;94172.19;;;15.55;67.44
12626;BME280;6378;42.684;23.372;2023-04-26T08:50:19;94184.25;;;15.54;69.29
12626;BME280;6378;42.684;23.372;2023-04-26T08:52:47;94179.56;;;15.54;70.12
12626;BME280;6378;42.684;23.372;2023-04-26T08:55:14;94185.38;;;15.49;68.28
12626;BME280;6378;42.684;23.372;2023-04-26T08:57:42;94173.72;;;15.59;70.03
12626;BME280;6378;42.684;23.372;2023-04-26T09:00:08;94151.59;;;15.65;68.65
12626;BME280;6378;42.684;23.372;2023-04-26T09:02:36;94182.88;;;15.80;65.24
12626;BME280;6378;42.684;23.372;2023-04-26T09:05:05;94179.31;;;15.90;65.77
12626;BME280;6378;42.684;23.372;2023-04-26T09:07:37;94181.97;;;16.00;64.70
12626;BME280;6378;42.684;23.372;2023-04-26T09:10:04;94181.16;;;16.03;65.24
12626;BME280;6378;42.684;23.372;2023-04-26T09:12:30;94181.78;;;16.22;63.71
12626;BME280;6378;42.684;23.372;2023-04-26T09:14:56;94184.44;;;16.29;65.24
12626;BME280;6378;42.684;23.372;2023-04-26T09:17:30;94183.78;;;16.14;63.34
12626;BME280;6378;42.684;23.372;2023-04-26T09:19:56;94183.78;;;15.63;63.73
12626;BME280;6378;42.684;23.372;2023-04-26T09:24:53;94185.25;;;15.74;63.55
12626;BME280;6378;42.684;23.372;2023-04-26T09:27:19;94157.03;;;15.65;63.52
12626;BME280;6378;42.684;23.372;2023-04-26T09:30:07;94179.00;;;15.81;62.35
12626;BME280;6378;42.684;23.372;2023-04-26T09:35:29;94187.56;;;15.76;62.31
12626;BME280;6378;42.684;23.372;2023-04-26T09:38:00;94188.25;;;15.90;63.36
12626;BME280;6378;42.684;23.372;2023-04-26T09:40:28;94191.66;;;16.01;60.70
12626;BME280;6378;42.684;23.372;2023-04-26T09:43:02;94185.16;;;15.85;60.06
12626;BME280;6378;42.684;23.372;2023-04-26T09:45:29;94187.00;;;15.98;61.23
12626;BME280;6378;42.684;23.372;2023-04-26T09:48:12;94179.94;;;16.12;61.23
12626;BME280;6378;42.684;23.372;2023-04-26T09:50:38;94156.94;;;15.75;60.69
12626;BME280;6378;42.684;23.372;2023-04-26T09:53:03;94176.72;;;15.76;60.22
12626;BME280;6378;42.684;23.372;2023-04-26T09:55:30;94182.09;;;15.83;60.73
12626;BME280;6378;42.684;23.372;2023-04-26T09:57:56;94169.28;;;15.83;59.58
12626;BME280;6378;42.684;23.372;2023-04-26T10:00:25;94178.56;;;15.89;59.29
12626;BME280;6378;42.684;23.372;2023-04-26T10:02:54;94165.56;;;15.63;57.94
12626;BME280;6378;42.684;23.372;2023-04-26T10:05:21;94177.88;;;15.78;59.96
12626;BME280;6378;42.684;23.372;2023-04-26T10:07:48;94177.38;;;15.90;60.17
12626;BME280;6378;42.684;23.372;2023-04-26T10:10:14;94174.78;;;15.76;57.61
12626;BME280;6378;42.684;23.372;2023-04-26T10:12:40;94173.41;;;15.47;55.93
12626;BME280;6378;42.684;23.372;2023-04-26T10:15:10;94172.63;;;15.53;56.89
12626;BME280;6378;42.684;23.372;2023-04-26T10:17:38;94171.31;;;15.72;56.98
12626;BME280;6378;42.684;23.372;2023-04-26T10:20:07;94149.97;;;15.74;56.41
12626;BME280;6378;42.684;23.372;2023-04-26T10:22:45;94175.09;;;15.85;54.70
12626;BME280;6378;42.684;23.372;2023-04-26T10:25:14;94159.84;;;15.54;53.25
12626;BME280;6378;42.684;23.372;2023-04-26T10:30:10;94165.97;;;16.10;52.51
12626;BME280;6378;42.684;23.372;2023-04-26T10:35:21;94158.91;;;15.71;53.01
12626;BME280;6378;42.684;23.372;2023-04-26T10:45:41;94153.84;;;15.07;52.64
12626;BME280;6378;42.684;23.372;2023-04-26T10:53:30;94157.72;;;15.76;52.46
12626;BME280;6378;42.684;23.372;2023-04-26T10:55:56;94149.53;;;15.83;52.01
12626;BME280;6378;42.684;23.372;2023-04-26T10:58:31;94152.09;;;16.00;51.41
12626;BME280;6378;42.684;23.372;2023-04-26T11:01:07;94147.81;;;15.51;47.88
12626;BME280;6378;42.684;23.372;2023-04-26T11:03:37;94155.16;;;15.58;50.15
12626;BME280;6378;42.684;23.372;2023-04-26T11:06:05;94132.75;;;15.43;49.92
12626;BME280;6378;42.684;23.372;2023-04-26T11:08:31;94152.38;;;15.65;49.65
12626;BME280;6378;42.684;23.372;2023-04-26T11:11:08;94152.78;;;15.60;49.95
12626;BME280;6378;42.684;23.372;2023-04-26T11:13:36;94157.72;;;15.76;49.98
12626;BME280;6378;42.684;23.372;2023-04-26T11:16:04;94155.97;;;15.99;48.47
12626;BME280;6378;42.684;23.372;2023-04-26T11:18:31;94159.41;;;16.07;49.02
12626;BME280;6378;42.684;23.372;2023-04-26T11:20:58;94150.91;;;16.05;49.46
12626;BME280;6378;42.684;23.372;2023-04-26T11:23:28;94154.81;;;16.00;48.55
12626;BME280;6378;42.684;23.372;2023-04-26T11:26:01;94158.13;;;16.22;49.45
12626;BME280;6378;42.684;23.372;2023-04-26T11:28:28;94163.69;;;16.04;48.40
12626;BME280;6378;42.684;23.372;2023-04-26T11:30:53;94150.97;;;15.94;48.20
12626;BME280;6378;42.684;23.372;2023-04-26T11:33:20;94158.78;;;15.89;48.55
12626;BME280;6378;42.684;23.372;2023-04-26T11:35:49;94159.56;;;15.89;48.09
12626;BME280;6378;42.684;23.372;2023-04-26T11:38:16;94154.78;;;16.08;47.75
12626;BME280;6378;42.684;23.372;2023-04-26T11:40:42;94085.03;;;15.56;48.19
12626;BME280;6378;42.684;23.372;2023-04-26T11:43:08;94147.44;;;16.01;47.49
12626;BME280;6378;42.684;23.372;2023-04-26T11:45:36;94159.97;;;15.84;47.52
12626;BME280;6378;42.684;23.372;2023-04-26T11:48:06;94155.63;;;15.94;48.48
12626;BME280;6378;42.684;23.372;2023-04-26T11:50:36;94148.38;;;16.25;47.98
12626;BME280;6378;42.684;23.372;2023-04-26T11:53:04;94157.34;;;16.22;47.16
12626;BME280;6378;42.684;23.372;2023-04-26T11:55:31;94149.75;;;16.43;46.31
12626;BME280;6378;42.684;23.372;2023-04-26T11:57:58;94141.31;;;16.72;47.11
12626;BME280;6378;42.684;23.372;2023-04-26T12:00:24;94153.25;;;16.81;45.63
12626;BME280;6378;42.684;23.372;2023-04-26T12:02:50;94135.88;;;16.72;45.47
12626;BME280;6378;42.684;23.372;2023-04-26T12:05:27;94142.91;;;16.69;45.90
12626;BME280;6378;42.684;23.372;2023-04-26T12:07:57;94139.75;;;16.37;46.73
12626;BME280;6378;42.684;23.372;2023-04-26T12:10:24;94145.25;;;16.30;47.68
12626;BME280;6378;42.684;23.372;2023-04-26T12:12:51;94144.56;;;16.19;48.16
12626;BME280;6378;42.684;23.372;2023-04-26T12:15:17;94136.47;;;16.15;48.55
12626;BME280;6378;42.684;23.372;2023-04-26T12:17:57;94135.78;;;16.04;47.22
12626;BME280;6378;42.684;23.372;2023-04-26T12:20:33;94137.72;;;16.03;48.40
12626;BME280;6378;42.684;23.372;2023-04-26T12:23:00;94138.41;;;16.15;48.63
12626;BME280;6378;42.684;23.372;2023-04-26T12:25:26;94137.88;;;15.86;47.55
12626;BME280;6378;42.684;23.372;2023-04-26T12:27:52;94129.47;;;15.73;48.50
12626;BME280;6378;42.684;23.372;2023-04-26T12:30:18;94144.22;;;15.65;48.33
12626;BME280;6378;42.684;23.372;2023-04-26T12:32:43;94132.53;;;15.75;47.96
12626;BME280;6378;42.684;23.372;2023-04-26T12:35:09;94127.25;;;15.57;47.14
12626;BME280;6378;42.684;23.372;2023-04-26T12:37:34;94133.00;;;15.67;47.74
12626;BME280;6378;42.684;23.372;2023-04-26T12:40:00;94132.75;;;15.40;48.00
12626;BME280;6378;42.684;23.372;2023-04-26T12:42:25;94125.06;;;15.31;47.60
12626;BME280;6378;42.684;23.372;2023-04-26T12:44:51;94128.88;;;15.41;47.37
12626;BME280;6378;42.684;23.372;2023-04-26T12:47:17;94138.19;;;15.36;48.54
12626;BME280;6378;42.684;23.372;2023-04-26T12:49:42;94115.44;;;15.23;48.38
12626;BME280;6378;42.684;23.372;2023-04-26T12:52:08;94116.16;;;15.34;48.30
12626;BME280;6378;42.684;23.372;2023-04-26T12:54:34;94126.00;;;15.03;49.98
12626;BME280;6378;42.684;23.372;2023-04-26T12:56:59;94139.91;;;15.05;51.22
12626;BME280;6378;42.684;23.372;2023-04-26T12:59:24;94129.50;;;15.00;50.65
12626;BME280;6378;42.684;23.372;2023-04-26T13:01:50;94136.47;;;15.01;51.71
12626;BME280;6378;42.684;23.372;2023-04-26T13:04:15;94121.88;;;14.74;49.87
12626;BME280;6378;42.684;23.372;2023-04-26T13:06:41;94130.84;;;14.60;49.90
12626;BME280;6378;42.684;23.372;2023-04-26T13:09:06;94141.69;;;14.50;50.78
12626;BME280;6378;42.684;23.372;2023-04-26T13:11:32;94119.28;;;14.39;51.77
12626;BME280;6378;42.684;23.372;2023-04-26T13:13:57;94152.56;;;14.46;51.81
12626;BME280;6378;42.684;23.372;2023-04-26T13:16:24;94149.03;;;14.60;52.56
12626;BME280;6378;42.684;23.372;2023-04-26T13:18:49;94159.47;;;14.54;52.40
12626;BME280;6378;42.684;23.372;2023-04-26T13:21:15;94176.16;;;14.31;50.19